createdAt,value
2022-09-17T00:01:19.153Z,13.78
2022-09-17T00:04:16.750Z,13.82
2022-09-17T00:07:13.770Z,13.82
2022-09-17T00:10:10.866Z,13.97
2022-09-17T00:13:08.074Z,14.07
2022-09-17T00:16:05.077Z,13.97
2022-09-17T00:19:02.976Z,13.89
2022-09-17T00:21:59.905Z,13.82
2022-09-17T00:24:56.687Z,13.81
2022-09-17T00:27:53.619Z,13.82
2022-09-17T00:30:50.495Z,13.87
2022-09-17T00:33:47.932Z,13.85
2022-09-17T00:36:45.072Z,13.86
2022-09-17T00:39:41.887Z,13.72
2022-09-17T00:42:38.841Z,13.58
2022-09-17T00:45:35.829Z,13.65
2022-09-17T00:48:32.571Z,13.67
2022-09-17T00:51:38.010Z,13.75
2022-09-17T00:54:35.762Z,13.67
2022-09-17T00:57:32.792Z,13.74
2022-09-17T01:00:30.913Z,13.82
2022-09-17T01:03:28.163Z,13.91
2022-09-17T01:06:57.425Z,13.91
2022-09-17T01:10:14.692Z,13.90
2022-09-17T01:13:19.582Z,13.91
2022-09-17T01:16:21.018Z,13.68
2022-09-17T01:19:43.282Z,13.75
2022-09-17T01:22:43.730Z,13.71
2022-09-17T01:25:55.778Z,13.75
2022-09-17T01:28:55.750Z,13.79
2022-09-17T01:31:58.812Z,13.72
2022-09-17T01:35:09.962Z,13.72
2022-09-17T01:38:23.645Z,13.55
2022-09-17T01:41:42.104Z,13.60
2022-09-17T01:45:01.921Z,13.47
2022-09-17T01:48:03.530Z,13.31
2022-09-17T01:51:07.965Z,13.28
2022-09-17T01:54:21.540Z,13.22
2022-09-17T01:57:34.071Z,13.12
2022-09-17T02:00:31.130Z,12.93
2022-09-17T02:03:42.621Z,12.86
2022-09-17T02:06:41.824Z,12.68
2022-09-17T02:09:42.277Z,12.78
2022-09-17T02:12:43.145Z,12.76
2022-09-17T02:15:52.433Z,12.73
2022-09-17T02:18:53.387Z,12.68
2022-09-17T02:22:03.177Z,12.74
2022-09-17T02:25:11.733Z,12.75
2022-09-17T02:28:14.097Z,12.92
2022-09-17T02:31:11.243Z,12.66
2022-09-17T02:34:09.199Z,12.86
2022-09-17T02:37:06.172Z,12.88
2022-09-17T02:40:03.833Z,12.73
2022-09-17T02:43:33.671Z,12.80
2022-09-17T02:46:55.507Z,12.93
2022-09-17T02:50:14.918Z,12.89
2022-09-17T02:53:11.869Z,12.95
2022-09-17T02:56:23.933Z,12.89
2022-09-17T02:59:31.611Z,12.79
2022-09-17T03:02:32.426Z,12.93
2022-09-17T03:05:29.905Z,12.87
2022-09-17T03:08:32.662Z,13.00
2022-09-17T03:11:29.595Z,12.81
2022-09-17T03:14:27.009Z,12.66
2022-09-17T03:17:23.924Z,12.75
2022-09-17T03:20:20.707Z,12.57
2022-09-17T03:23:18.057Z,12.54
2022-09-17T03:26:15.046Z,12.54
2022-09-17T03:29:11.898Z,12.42
2022-09-17T03:32:08.826Z,12.14
2022-09-17T03:35:06.027Z,12.13
2022-09-17T03:38:02.891Z,12.05
2022-09-17T03:41:05.227Z,12.05
2022-09-17T03:44:01.897Z,12.09
2022-09-17T03:46:59.240Z,11.99
2022-09-17T03:49:56.063Z,11.88
2022-09-17T03:52:52.933Z,12.07
2022-09-17T03:55:50.266Z,11.97
2022-09-17T03:58:47.097Z,11.83
2022-09-17T04:01:44.131Z,11.95
2022-09-17T04:04:40.909Z,12.03
2022-09-17T04:07:39.801Z,11.88
2022-09-17T04:10:37.109Z,11.92
2022-09-17T04:13:33.893Z,11.96
2022-09-17T04:16:31.073Z,12.05
2022-09-17T04:19:28.014Z,12.01
2022-09-17T04:22:25.767Z,11.79
2022-09-17T04:25:22.960Z,11.71
2022-09-17T04:28:19.762Z,11.54
2022-09-17T04:31:17.293Z,11.57
2022-09-17T04:34:14.764Z,11.69
2022-09-17T04:37:11.738Z,11.76
2022-09-17T04:40:09.514Z,11.87
2022-09-17T04:43:07.129Z,11.88
2022-09-17T04:46:04.247Z,11.77
2022-09-17T04:49:01.263Z,11.69
2022-09-17T04:51:58.061Z,11.72
2022-09-17T04:54:54.870Z,11.73
2022-09-17T04:57:52.813Z,11.53
2022-09-17T05:00:50.143Z,11.66
2022-09-17T05:03:47.267Z,11.65
2022-09-17T05:06:44.120Z,11.60
2022-09-17T05:09:41.659Z,11.54
2022-09-17T05:12:39.189Z,11.69
2022-09-17T05:15:38.689Z,11.74
2022-09-17T05:18:36.022Z,11.70
2022-09-17T05:21:33.131Z,11.71
2022-09-17T05:24:30.151Z,11.77
2022-09-17T05:27:27.105Z,11.66
2022-09-17T05:30:24.181Z,11.69
2022-09-17T05:33:21.246Z,11.60
2022-09-17T05:36:17.878Z,11.41
2022-09-17T05:39:15.358Z,11.37
2022-09-17T05:42:12.132Z,11.40
2022-09-17T05:45:09.441Z,11.58
2022-09-17T05:48:13.700Z,11.78
2022-09-17T05:51:11.723Z,11.71
2022-09-17T05:54:09.217Z,11.80
2022-09-17T05:57:06.359Z,11.92
2022-09-17T06:00:03.945Z,11.89
2022-09-17T06:03:13.791Z,11.87
2022-09-17T06:06:11.384Z,11.77
2022-09-17T06:09:08.891Z,11.60
2022-09-17T06:12:06.405Z,11.74
2022-09-17T06:15:04.261Z,11.86
2022-09-17T06:18:00.970Z,11.92
2022-09-17T06:21:02.198Z,11.95
2022-09-17T06:23:58.844Z,12.03
2022-09-17T06:26:56.279Z,11.97
2022-09-17T06:29:53.415Z,11.85
2022-09-17T06:32:50.151Z,11.82
2022-09-17T06:35:47.385Z,11.94
2022-09-17T06:38:45.499Z,12.14
2022-09-17T06:41:43.453Z,12.03
2022-09-17T06:44:41.105Z,12.14
2022-09-17T06:47:37.841Z,12.11
2022-09-17T06:50:37.320Z,12.26
2022-09-17T06:53:38.325Z,12.37
2022-09-17T06:56:34.960Z,12.38
2022-09-17T06:59:31.982Z,12.36
2022-09-17T07:02:28.974Z,12.29
2022-09-17T07:05:26.485Z,12.34
2022-09-17T07:08:24.321Z,12.35
2022-09-17T07:11:20.959Z,12.23
2022-09-17T07:14:19.227Z,12.26
2022-09-17T07:17:16.249Z,12.30
2022-09-17T07:20:13.549Z,12.29
2022-09-17T07:23:11.070Z,12.46
2022-09-17T07:26:12.356Z,12.52
2022-09-17T07:29:09.206Z,12.62
2022-09-17T07:32:05.971Z,12.67
2022-09-17T07:35:03.718Z,12.56
2022-09-17T07:38:01.058Z,12.95
2022-09-17T07:40:59.918Z,13.02
2022-09-17T07:43:57.137Z,12.79
2022-09-17T07:46:54.260Z,12.98
2022-09-17T07:49:51.122Z,12.92
2022-09-17T07:52:48.385Z,13.17
2022-09-17T07:55:58.650Z,13.24
2022-09-17T07:58:56.526Z,13.21
2022-09-17T08:01:53.950Z,13.33
2022-09-17T08:04:51.177Z,13.09
2022-09-17T08:07:51.781Z,13.35
2022-09-17T08:10:49.029Z,13.35
2022-09-17T08:13:49.579Z,13.50
2022-09-17T08:16:47.497Z,13.68
2022-09-17T08:19:45.207Z,13.67
2022-09-17T08:22:44.764Z,13.69
2022-09-17T08:25:44.342Z,13.58
2022-09-17T08:28:43.988Z,13.78
2022-09-17T08:31:41.205Z,13.83
2022-09-17T08:34:38.460Z,13.84
2022-09-17T08:37:35.180Z,13.70
2022-09-17T08:40:32.019Z,14.00
2022-09-17T08:43:29.252Z,13.97
2022-09-17T08:46:26.266Z,14.12
2022-09-17T08:49:34.144Z,14.25
2022-09-17T08:52:40.744Z,14.11
2022-09-17T08:55:46.165Z,14.29
2022-09-17T08:58:55.392Z,14.28
2022-09-17T09:01:52.394Z,14.27
2022-09-17T09:05:02.851Z,14.44
2022-09-17T09:08:08.567Z,14.25
2022-09-17T09:11:17.576Z,14.25
2022-09-17T09:15:02.814Z,14.27
2022-09-17T09:18:10.388Z,14.32
2022-09-17T09:21:18.914Z,14.32
2022-09-17T09:24:23.630Z,14.39
2022-09-17T09:27:35.981Z,14.37
2022-09-17T09:30:52.785Z,14.19
2022-09-17T09:33:50.065Z,14.20
2022-09-17T09:36:47.186Z,14.37
2022-09-17T09:39:46.039Z,14.33
2022-09-17T09:42:43.481Z,14.44
2022-09-17T09:45:45.012Z,14.65
2022-09-17T09:49:10.192Z,14.74
2022-09-17T09:52:12.885Z,14.83
2022-09-17T09:55:22.234Z,14.64
2022-09-17T09:58:38.498Z,14.84
2022-09-17T10:01:37.249Z,14.71
2022-09-17T10:04:34.232Z,14.74
2022-09-17T10:07:31.208Z,14.72
2022-09-17T10:10:28.020Z,14.91
2022-09-17T10:13:25.715Z,14.92
2022-09-17T10:16:25.470Z,14.91
2022-09-17T10:19:25.613Z,15.10
2022-09-17T10:22:24.995Z,15.25
2022-09-17T10:25:31.871Z,15.30
2022-09-17T10:28:44.860Z,15.25
2022-09-17T10:31:49.211Z,15.13
2022-09-17T10:35:14.758Z,15.37
2022-09-17T10:38:28.306Z,15.20
2022-09-17T10:41:25.713Z,15.38
2022-09-17T10:44:24.274Z,15.20
2022-09-17T10:47:31.164Z,15.18
2022-09-17T10:50:35.456Z,15.26
2022-09-17T10:53:32.456Z,15.18
2022-09-17T10:56:36.403Z,15.28
2022-09-17T11:00:09.818Z,15.30
2022-09-17T11:03:25.690Z,14.95
2022-09-17T11:07:04.327Z,14.64
2022-09-17T11:10:51.962Z,14.53
2022-09-17T11:14:00.863Z,14.71
2022-09-17T11:17:40.600Z,14.96
2022-09-17T11:20:58.767Z,14.84
2022-09-17T11:23:56.078Z,14.88
2022-09-17T11:27:20.751Z,14.86
2022-09-17T11:30:20.026Z,14.66
2022-09-17T11:33:17.280Z,14.63
2022-09-17T11:36:18.045Z,14.85
2022-09-17T11:39:18.832Z,14.89
2022-09-17T11:42:21.244Z,15.07
2022-09-17T11:45:20.469Z,15.26
2022-09-17T11:48:19.642Z,15.45
2022-09-17T11:51:32.307Z,15.48
2022-09-17T11:54:52.603Z,15.59
2022-09-17T11:57:54.289Z,15.76
2022-09-17T12:00:54.379Z,15.98
2022-09-17T12:03:56.107Z,15.87
2022-09-17T12:06:57.252Z,15.36
2022-09-17T12:09:58.748Z,14.69
2022-09-17T12:12:59.199Z,14.57
2022-09-17T12:16:22.123Z,14.48
2022-09-17T12:19:30.237Z,14.79
2022-09-17T12:22:30.261Z,14.98
2022-09-17T12:25:28.299Z,15.37
2022-09-17T12:28:32.687Z,15.21
2022-09-17T12:31:46.570Z,15.39
2022-09-17T12:34:55.351Z,15.47
2022-09-17T12:38:19.885Z,15.52
2022-09-17T12:41:29.498Z,15.87
2022-09-17T12:44:42.510Z,16.11
2022-09-17T12:47:48.575Z,15.90
2022-09-17T12:51:03.451Z,16.06
2022-09-17T12:54:34.158Z,15.98
2022-09-17T12:57:56.079Z,15.68
2022-09-17T13:01:00.408Z,15.61
2022-09-17T13:04:04.502Z,15.44
2022-09-17T13:07:05.016Z,15.64
2022-09-17T13:10:14.313Z,15.79
2022-09-17T13:13:11.312Z,15.59
2022-09-17T13:16:20.707Z,15.59
2022-09-17T13:19:26.705Z,15.87
2022-09-17T13:22:27.772Z,15.96
2022-09-17T13:25:27.113Z,15.68
2022-09-17T13:28:24.519Z,15.27
2022-09-17T13:31:22.984Z,15.16
2022-09-17T13:34:20.378Z,14.99
2022-09-17T13:37:20.534Z,15.31
2022-09-17T13:40:22.579Z,15.53
2022-09-17T13:43:21.064Z,15.79
2022-09-17T13:46:24.402Z,15.94
2022-09-17T13:49:21.974Z,16.17
2022-09-17T13:52:33.862Z,16.22
2022-09-17T13:55:38.495Z,16.23
2022-09-17T13:58:35.809Z,16.01
2022-09-17T14:01:56.489Z,15.91
2022-09-17T14:04:57.355Z,15.89
2022-09-17T14:08:11.945Z,16.07
2022-09-17T14:11:26.643Z,16.35
2022-09-17T14:14:40.777Z,16.39
2022-09-17T14:17:53.629Z,15.99
2022-09-17T14:20:50.745Z,16.02
2022-09-17T14:23:50.752Z,16.10
2022-09-17T14:27:15.330Z,16.15
2022-09-17T14:30:19.175Z,16.27
2022-09-17T14:33:22.339Z,16.09
2022-09-17T14:36:20.842Z,16.07
2022-09-17T14:39:23.382Z,15.97
2022-09-17T14:42:27.847Z,16.16
2022-09-17T14:45:31.852Z,16.44
2022-09-17T14:48:30.302Z,16.30
2022-09-17T14:51:29.085Z,15.74
2022-09-17T14:54:28.250Z,15.37
2022-09-17T14:57:28.439Z,15.36
2022-09-17T15:00:32.758Z,15.34
2022-09-17T15:03:29.261Z,15.74
2022-09-17T15:06:26.505Z,15.70
2022-09-17T15:09:25.897Z,15.71
2022-09-17T15:12:27.435Z,15.58
2022-09-17T15:15:26.359Z,15.32
2022-09-17T15:18:29.610Z,15.29
2022-09-17T15:21:32.549Z,15.32
2022-09-17T15:24:48.224Z,15.32
2022-09-17T15:27:45.875Z,15.47
2022-09-17T15:30:43.209Z,15.70
2022-09-17T15:33:40.582Z,15.78
2022-09-17T15:36:37.653Z,15.78
2022-09-17T15:39:39.983Z,15.81
2022-09-17T15:42:37.715Z,15.86
2022-09-17T15:45:39.265Z,15.98
2022-09-17T15:48:38.574Z,16.01
2022-09-17T15:51:36.108Z,15.72
2022-09-17T15:54:33.788Z,15.59
2022-09-17T15:57:30.666Z,15.61
2022-09-17T16:00:27.395Z,15.59
2022-09-17T16:03:39.789Z,15.62
2022-09-17T16:06:37.882Z,15.63
2022-09-17T16:09:49.073Z,15.76
2022-09-17T16:12:49.377Z,15.87
2022-09-17T16:15:48.376Z,15.74
2022-09-17T16:18:45.777Z,15.78
2022-09-17T16:21:42.645Z,15.69
2022-09-17T16:24:39.623Z,15.60
2022-09-17T16:27:48.146Z,15.71
2022-09-17T16:30:47.907Z,15.72
2022-09-17T16:33:45.656Z,15.38
2022-09-17T16:36:42.609Z,15.26
2022-09-17T16:39:39.800Z,15.20
2022-09-17T16:42:36.845Z,15.23
2022-09-17T16:45:34.972Z,15.26
2022-09-17T16:48:32.993Z,15.21
2022-09-17T16:51:30.616Z,15.25
2022-09-17T16:54:27.805Z,15.11
2022-09-17T16:57:24.519Z,15.00
2022-09-17T17:00:22.638Z,14.91
2022-09-17T17:03:19.444Z,15.00
2022-09-17T17:06:17.064Z,15.00
2022-09-17T17:09:14.691Z,14.95
2022-09-17T17:12:12.029Z,15.08
2022-09-17T17:15:10.152Z,14.84
2022-09-17T17:18:07.566Z,14.93
2022-09-17T17:21:11.553Z,14.89
2022-09-17T17:24:08.724Z,14.91
2022-09-17T17:27:05.772Z,14.73
2022-09-17T17:30:06.575Z,14.56
2022-09-17T17:33:04.173Z,14.64
2022-09-17T17:36:07.955Z,14.53
2022-09-17T17:39:05.729Z,14.61
2022-09-17T17:42:02.637Z,14.45
2022-09-17T17:44:59.772Z,14.31
2022-09-17T17:47:56.872Z,14.40
2022-09-17T17:50:56.754Z,14.36
2022-09-17T17:53:54.775Z,14.24
2022-09-17T17:56:51.743Z,14.27
2022-09-17T17:59:49.778Z,14.33
2022-09-17T18:02:46.977Z,14.32
2022-09-17T18:05:44.531Z,14.05
2022-09-17T18:08:42.979Z,13.94
2022-09-17T18:11:40.611Z,14.02
2022-09-17T18:14:37.548Z,13.95
2022-09-17T18:17:36.377Z,13.85
2022-09-17T18:20:33.464Z,13.80
2022-09-17T18:23:30.983Z,13.84
2022-09-17T18:26:29.076Z,13.79
2022-09-17T18:29:26.764Z,13.86
2022-09-17T18:32:23.773Z,13.76
2022-09-17T18:35:23.038Z,13.67
2022-09-17T18:38:20.708Z,13.63
2022-09-17T18:41:17.336Z,13.68
2022-09-17T18:44:14.756Z,13.61
2022-09-17T18:47:11.466Z,13.65
2022-09-17T18:50:08.784Z,13.68
2022-09-17T18:53:06.064Z,13.74
2022-09-17T18:56:25.014Z,13.91
2022-09-17T18:59:22.564Z,13.91
2022-09-17T19:02:19.590Z,13.88
2022-09-17T19:05:17.242Z,13.75
2022-09-17T19:08:20.784Z,13.71
2022-09-17T19:11:17.794Z,13.58
2022-09-17T19:14:15.466Z,13.65
2022-09-17T19:17:12.450Z,13.64
2022-09-17T19:20:09.634Z,13.71
2022-09-17T19:23:06.565Z,13.68
2022-09-17T19:26:11.389Z,13.60
2022-09-17T19:29:11.531Z,13.75
2022-09-17T19:32:08.716Z,13.70
2022-09-17T19:35:07.302Z,13.72
2022-09-17T19:38:04.864Z,13.53
2022-09-17T19:41:12.099Z,13.50
2022-09-17T19:44:09.833Z,13.53
2022-09-17T19:47:06.978Z,13.38
2022-09-17T19:50:03.838Z,13.26
2022-09-17T19:53:00.751Z,13.20
2022-09-17T19:55:57.682Z,13.20
2022-09-17T19:58:54.767Z,13.19
2022-09-17T20:01:51.645Z,13.26
2022-09-17T20:04:48.666Z,13.26
2022-09-17T20:07:45.915Z,13.06
2022-09-17T20:10:42.813Z,13.07
2022-09-17T20:13:39.860Z,12.92
2022-09-17T20:16:38.538Z,13.12
2022-09-17T20:19:35.554Z,13.21
2022-09-17T20:22:33.069Z,13.14
2022-09-17T20:25:30.856Z,13.11
2022-09-17T20:28:28.214Z,12.88
2022-09-17T20:31:27.488Z,13.11
2022-09-17T20:34:24.705Z,13.12
2022-09-17T20:37:55.403Z,13.06
2022-09-17T20:40:38.882Z,13.03
2022-09-17T20:43:39.429Z,12.92
2022-09-17T20:46:36.939Z,12.92
2022-09-17T20:49:33.787Z,12.86
2022-09-17T20:52:30.924Z,12.68
2022-09-17T20:55:27.742Z,12.78
2022-09-17T20:58:25.935Z,12.94
2022-09-17T21:01:24.310Z,12.90
2022-09-17T21:04:22.088Z,13.06
2022-09-17T21:07:20.090Z,13.14
2022-09-17T21:10:17.682Z,12.96
2022-09-17T21:13:14.577Z,12.96
2022-09-17T21:16:12.518Z,12.79
2022-09-17T21:19:11.040Z,12.80
2022-09-17T21:22:07.776Z,12.75
2022-09-17T21:25:05.011Z,12.78
2022-09-17T21:28:01.836Z,12.73
2022-09-17T21:31:03.797Z,12.63
2022-09-17T21:34:04.898Z,12.78
2022-09-17T21:37:04.963Z,12.76
2022-09-17T21:40:01.824Z,12.76
2022-09-17T21:42:58.928Z,12.75
2022-09-17T21:45:59.636Z,12.77
2022-09-17T21:49:00.057Z,12.72
2022-09-17T21:51:57.620Z,12.68
2022-09-17T21:54:54.593Z,12.68
2022-09-17T21:57:51.577Z,12.82
2022-09-17T22:00:49.518Z,12.81
2022-09-17T22:03:46.803Z,12.69
2022-09-17T22:06:44.275Z,12.68
2022-09-17T22:09:41.718Z,12.70
2022-09-17T22:12:41.249Z,12.70
2022-09-17T22:15:38.839Z,12.71
2022-09-17T22:18:36.926Z,12.69
2022-09-17T22:21:36.056Z,12.45
2022-09-17T22:24:32.935Z,12.52
2022-09-17T22:27:29.738Z,12.51
2022-09-17T22:30:27.026Z,12.56
2022-09-17T22:33:23.996Z,12.59
2022-09-17T22:36:23.143Z,12.48
2022-09-17T22:39:22.834Z,12.39
2022-09-17T22:42:19.798Z,12.47
2022-09-17T22:45:17.835Z,12.48
2022-09-17T22:48:14.510Z,12.44
2022-09-17T22:51:11.985Z,12.49
2022-09-17T22:54:11.243Z,12.42
2022-09-17T22:57:08.942Z,12.44
2022-09-17T23:00:07.549Z,12.37
2022-09-17T23:03:04.793Z,12.61
2022-09-17T23:06:02.431Z,12.41
2022-09-17T23:09:00.239Z,12.41
2022-09-17T23:11:57.781Z,12.44
2022-09-17T23:14:54.809Z,12.51
2022-09-17T23:17:52.097Z,12.72
2022-09-17T23:20:59.473Z,12.67
2022-09-17T23:23:56.493Z,12.58
2022-09-17T23:26:53.908Z,12.54
2022-09-17T23:29:50.812Z,12.67
2022-09-17T23:32:47.700Z,12.57
2022-09-17T23:35:44.778Z,12.55
2022-09-17T23:38:43.075Z,12.56
2022-09-17T23:41:43.111Z,12.70
2022-09-17T23:44:40.108Z,12.68
2022-09-17T23:47:36.802Z,12.62
2022-09-17T23:50:33.839Z,12.70
2022-09-17T23:53:31.383Z,12.72
2022-09-17T23:56:28.985Z,12.55
2022-09-17T23:59:25.847Z,12.25
